Time;durP1;ratioP1;P1;durP2;ratioP2;P2;SDS_P1;SDS_P2;PMS_P1;PMS_P2;Temp;Humidity;BMP_temperature;BMP_pressure;BME280_temperature;BME280_humidity;BME280_pressure;Samples;Min_cycle;Max_cycle;Signal;HPM_P1;HPM_P2
2021/06/16 00:00:08;;;;;;;0.15;0.15;;;;;;;18.19;85.88;99086.09;6162639;23;20021;-83
2021/06/16 00:02:40;;;;;;;0.10;0.10;;;;;;;18.16;85.65;99079.13;6138210;23;20368;-82
2021/06/16 00:05:15;;;;;;;0.20;0.20;;;;;;;18.13;85.95;99074.09;6163432;23;20017;-83
2021/06/16 00:07:42;;;;;;;0.10;0.10;;;;;;;18.07;86.13;99075.81;6138050;23;20033;-82
2021/06/16 00:10:09;;;;;;;0.20;0.20;;;;;;;18.00;86.05;99074.13;6137157;23;20049;-80
2021/06/16 00:12:37;;;;;;;0.10;0.10;;;;;;;18.03;86.00;99080.03;6135215;23;20017;-83
2021/06/16 00:15:15;;;;;;;0.10;0.10;;;;;;;18.01;85.77;99071.16;6137252;23;20017;-83
2021/06/16 00:17:41;;;;;;;0.13;0.10;;;;;;;17.93;85.99;99079.59;6134882;23;20064;-84
2021/06/16 00:20:08;;;;;;;0.10;0.10;;;;;;;17.87;85.00;99083.19;6159174;23;20095;-84
2021/06/16 00:22:34;;;;;;;0.10;0.10;;;;;;;17.85;84.93;99077.09;6158099;23;20025;-82
2021/06/16 00:25:00;;;;;;;0.10;0.10;;;;;;;17.78;84.39;99079.84;6160534;23;20445;-83
2021/06/16 00:27:26;;;;;;;0.20;0.20;;;;;;;17.81;83.93;99084.06;6108141;23;20061;-81
2021/06/16 00:29:52;;;;;;;0.30;0.30;;;;;;;17.82;85.19;99088.47;6133213;23;20021;-81
2021/06/16 00:32:18;;;;;;;0.20;0.20;;;;;;;17.83;84.77;99084.66;6133736;23;20029;-82
2021/06/16 00:35:02;;;;;;;0.50;0.20;;;;;;;17.85;84.46;99077.09;6116841;23;20022;-82
2021/06/16 00:37:28;;;;;;;0.10;0.10;;;;;;;17.86;83.05;99095.19;6159136;23;20025;-82
2021/06/16 00:39:56;;;;;;;0.20;0.20;;;;;;;17.88;82.81;99092.22;6134122;23;20412;-82
2021/06/16 00:42:25;;;;;;;0.10;0.10;;;;;;;17.82;82.34;99085.72;6133956;23;20021;-80
2021/06/16 00:44:52;;;;;;;0.20;0.10;;;;;;;17.86;82.31;99092.44;6133809;23;20025;-83
2021/06/16 00:47:18;;;;;;;0.20;0.20;;;;;;;17.89;81.67;99083.00;6132600;23;20025;-83
2021/06/16 00:49:44;;;;;;;0.17;0.17;;;;;;;17.91;81.37;99084.44;6131432;23;20340;-83
2021/06/16 00:52:11;;;;;;;0.10;0.10;;;;;;;17.90;81.60;99081.94;6159758;23;20454;-82
2021/06/16 00:54:37;;;;;;;0.10;0.10;;;;;;;17.85;81.18;99082.56;6132583;23;20458;-81
2021/06/16 00:57:03;;;;;;;0.17;0.10;;;;;;;17.77;80.35;99085.50;6156431;23;20323;-82
2021/06/16 00:59:35;;;;;;;0.10;0.10;;;;;;;17.74;79.51;99075.81;6132816;23;20020;-82
2021/06/16 01:02:02;;;;;;;0.10;0.10;;;;;;;17.79;80.09;99083.41;6153335;23;20032;-82
2021/06/16 01:04:30;;;;;;;0.15;0.15;;;;;;;17.78;80.46;99079.00;6157249;23;20432;-82
2021/06/16 01:07:04;;;;;;;0.10;0.10;;;;;;;17.75;80.70;99084.84;6153277;23;20030;-80
2021/06/16 01:09:42;;;;;;;0.10;0.10;;;;;;;17.75;81.13;99082.13;6154318;23;20152;-82
2021/06/16 01:12:33;;;;;;;0.10;0.10;;;;;;;17.76;79.94;99079.19;6131883;23;20048;-81
2021/06/16 01:15:02;;;;;;;0.17;0.17;;;;;;;17.72;79.88;99072.44;6129207;23;20017;-83
2021/06/16 01:17:32;;;;;;;0.13;0.13;;;;;;;17.70;79.26;99069.09;6155298;23;20077;-81
2021/06/16 01:19:58;;;;;;;0.10;0.10;;;;;;;17.73;80.43;99085.06;6153156;23;20088;-82
2021/06/16 01:22:41;;;;;;;0.10;0.10;;;;;;;17.81;79.48;99086.78;6129509;23;20029;-81
2021/06/16 01:25:18;;;;;;;0.10;0.10;;;;;;;17.78;79.76;99076.28;6129949;23;20032;-80
2021/06/16 01:27:44;;;;;;;0.10;0.10;;;;;;;17.80;78.81;99085.09;6153948;23;20083;-82
2021/06/16 01:30:10;;;;;;;0.20;0.20;;;;;;;17.81;80.48;99086.78;6152895;23;20025;-81
2021/06/16 01:32:37;;;;;;;0.22;0.10;;;;;;;17.77;79.68;99085.50;6104328;23;20076;-82
2021/06/16 01:35:04;;;;;;;0.20;0.20;;;;;;;17.75;80.43;99082.13;6153639;23;20028;-80
2021/06/16 01:37:30;;;;;;;0.10;0.10;;;;;;;17.74;79.99;99083.19;6082687;23;20026;-81
2021/06/16 01:39:57;;;;;;;0.15;0.15;;;;;;;17.77;78.83;99090.97;6155064;23;20017;-83
2021/06/16 01:42:24;;;;;;;0.13;0.13;;;;;;;17.75;79.86;99087.59;6132114;23;20080;-83
2021/06/16 01:44:51;;;;;;;0.20;0.10;;;;;;;17.77;79.08;99085.50;6156145;23;20021;-85
2021/06/16 01:47:20;;;;;;;0.10;0.10;;;;;;;17.79;79.27;99091.63;6152436;23;20029;-83
2021/06/16 01:49:48;;;;;;;0.32;0.20;;;;;;;17.78;79.58;99093.50;6128476;23;20506;-80
2021/06/16 01:52:17;;;;;;;1.20;0.50;;;;;;;17.81;79.84;99095.00;6129243;23;20024;-82
2021/06/16 01:54:42;;;;;;;0.30;0.30;;;;;;;17.75;80.11;99093.06;6154332;23;20045;-81
2021/06/16 01:57:09;;;;;;;0.15;0.15;;;;;;;17.76;78.48;99100.22;6153520;23;20352;-81
2021/06/16 01:59:39;;;;;;;0.52;0.20;;;;;;;17.79;78.03;99102.56;6152697;23;20025;-81
2021/06/16 02:02:06;;;;;;;0.10;0.10;;;;;;;17.78;77.96;99104.44;6105676;23;20433;-82
2021/06/16 02:04:33;;;;;;;0.30;0.20;;;;;;;17.80;77.65;99101.50;6128776;23;20104;-81
2021/06/16 02:07:06;;;;;;;0.13;0.13;;;;;;;17.87;76.66;99105.06;6153826;23;20025;-81
2021/06/16 02:09:34;;;;;;;0.20;0.20;;;;;;;17.94;77.10;99103.16;6155249;23;20017;-83
2021/06/16 02:12:00;;;;;;;0.60;0.20;;;;;;;18.02;76.24;99111.13;6153498;23;20021;-82
2021/06/16 02:14:26;;;;;;;0.20;0.20;;;;;;;18.05;76.98;99113.44;6157348;23;20018;-82
2021/06/16 02:16:58;;;;;;;0.20;0.20;;;;;;;17.95;77.35;99107.59;6158087;23;20070;-81
2021/06/16 02:19:31;;;;;;;0.30;0.20;;;;;;;18.02;77.20;99111.13;6134376;23;20384;-81
2021/06/16 02:21:58;;;;;;;0.20;0.20;;;;;;;17.99;77.50;99117.06;6158921;23;20025;-83
2021/06/16 02:24:24;;;;;;;0.20;0.20;;;;;;;17.96;77.29;99117.47;6131765;23;20044;-81
2021/06/16 02:26:51;;;;;;;0.20;0.20;;;;;;;18.10;77.12;99120.19;6152138;23;20021;-81
2021/06/16 02:29:18;;;;;;;0.10;0.10;;;;;;;18.20;76.60;99124.16;6152388;23;20083;-83
2021/06/16 02:31:44;;;;;;;0.10;0.10;;;;;;;18.25;76.80;99120.81;6127094;23;20404;-81
2021/06/16 02:34:11;;;;;;;0.47;0.20;;;;;;;18.32;76.97;99135.31;6128056;23;20165;-82
2021/06/16 02:36:42;;;;;;;0.10;0.10;;;;;;;18.31;77.30;99114.44;6153541;23;20385;-81
2021/06/16 02:39:13;;;;;;;0.20;0.20;;;;;;;18.36;76.91;99125.63;6153900;23;20022;-82
2021/06/16 02:41:41;;;;;;;0.75;0.13;;;;;;;18.40;76.91;99121.38;6152429;23;20509;-83
2021/06/16 02:44:07;;;;;;;0.20;0.20;;;;;;;18.51;75.96;99131.66;6131310;23;20113;-84
2021/06/16 02:46:34;;;;;;;0.20;0.20;;;;;;;18.63;75.78;99131.84;6152315;23;20080;-83
2021/06/16 02:49:02;;;;;;;0.20;0.20;;;;;;;18.82;75.69;99132.00;6156512;23;20024;-81
2021/06/16 02:51:30;;;;;;;0.20;0.20;;;;;;;18.85;75.25;99148.84;6156730;23;20029;-82
2021/06/16 02:53:57;;;;;;;0.30;0.20;;;;;;;18.90;75.44;99140.81;6130182;23;20080;-80
2021/06/16 02:56:23;;;;;;;0.40;0.20;;;;;;;18.92;74.50;99144.19;6154134;23;20112;-81
2021/06/16 02:58:49;;;;;;;0.50;0.30;;;;;;;18.98;74.13;99153.44;6130178;23;20211;-82
2021/06/16 03:01:17;;;;;;;0.20;0.20;;;;;;;19.10;73.87;99151.69;6154916;23;20070;-83
2021/06/16 03:03:47;;;;;;;0.20;0.20;;;;;;;18.99;73.92;99150.47;6130739;23;20013;-83
2021/06/16 03:06:16;;;;;;;0.20;0.20;;;;;;;19.07;74.00;99162.25;6130266;23;20025;-80
2021/06/16 03:08:44;;;;;;;0.20;0.20;;;;;;;18.94;74.24;99153.03;6133717;23;20025;-82
2021/06/16 03:11:11;;;;;;;0.10;0.10;;;;;;;18.93;74.02;99162.28;6130975;23;20193;-80
2021/06/16 03:13:37;;;;;;;0.22;0.20;;;;;;;19.01;73.82;99172.16;6158220;23;20032;-80
2021/06/16 03:16:04;;;;;;;0.75;0.20;;;;;;;19.11;73.18;99174.44;6105311;23;20025;-83
2021/06/16 03:18:30;;;;;;;0.32;0.32;;;;;;;19.18;72.72;99169.75;6131621;23;20141;-83
2021/06/16 03:20:58;;;;;;;0.20;0.20;;;;;;;19.40;72.68;99173.00;6155270;23;20017;-83
2021/06/16 03:23:26;;;;;;;0.30;0.30;;;;;;;19.62;71.08;99174.38;6134699;23;20028;-81
2021/06/16 03:25:55;;;;;;;0.20;0.20;;;;;;;19.87;70.33;99174.41;6132284;23;20026;-82
2021/06/16 03:28:23;;;;;;;0.20;0.20;;;;;;;20.08;70.21;99169.59;6160974;23;20017;-82
2021/06/16 03:30:53;;;;;;;0.20;0.20;;;;;;;20.22;68.98;99165.69;6133046;23;20014;-82
2021/06/16 03:33:20;;;;;;;0.52;0.30;;;;;;;20.33;68.17;99167.69;6133884;23;20021;-83
2021/06/16 03:35:46;;;;;;;0.20;0.20;;;;;;;20.30;67.50;99173.63;6104538;23;20028;-81
2021/06/16 03:38:13;;;;;;;0.20;0.20;;;;;;;20.47;66.74;99174.69;6128146;23;20017;-83
2021/06/16 03:40:40;;;;;;;0.30;0.30;;;;;;;20.89;65.74;99172.16;6155723;23;20022;-83
2021/06/16 03:43:09;;;;;;;0.30;0.30;;;;;;;21.16;64.49;99177.28;6156847;23;20021;-83
2021/06/16 03:45:36;;;;;;;0.30;0.30;;;;;;;21.16;64.46;99169.88;6156920;23;20017;-82
2021/06/16 03:48:02;;;;;;;0.30;0.30;;;;;;;21.53;63.23;99177.25;6161254;23;20050;-83
2021/06/16 03:50:29;;;;;;;0.20;0.20;;;;;;;21.77;62.20;99179.00;6089198;23;20099;-83
2021/06/16 03:52:56;;;;;;;0.28;0.25;;;;;;;21.69;62.62;99182.09;6137736;23;20021;-83
2021/06/16 03:55:23;;;;;;;0.30;0.30;;;;;;;21.71;61.74;99179.09;6134974;23;20085;-82
2021/06/16 03:57:50;;;;;;;0.20;0.20;;;;;;;21.86;60.74;99183.06;6138239;23;20471;-81
2021/06/16 04:00:17;;;;;;;0.22;0.22;;;;;;;22.00;59.70;99191.13;6136744;23;20196;-81
2021/06/16 04:02:47;;;;;;;0.30;0.30;;;;;;;22.24;58.96;99192.88;6160811;23;20025;-83
2021/06/16 04:05:15;;;;;;;0.30;0.30;;;;;;;22.28;58.91;99191.31;6141794;23;20095;-83
2021/06/16 04:07:45;;;;;;;0.30;0.30;;;;;;;22.06;59.55;99193.75;6113985;23;20030;-83
2021/06/16 04:10:12;;;;;;;0.30;0.30;;;;;;;22.29;59.16;99198.47;6110323;23;20096;-83
2021/06/16 04:12:38;;;;;;;0.45;0.40;;;;;;;22.51;57.97;99189.63;6140303;23;20031;-85
2021/06/16 04:15:05;;;;;;;0.30;0.30;;;;;;;22.75;57.10;99196.78;6137233;23;20025;-85
2021/06/16 04:17:31;;;;;;;0.75;0.30;;;;;;;22.94;56.57;99193.91;6162371;23;20103;-83
2021/06/16 04:19:58;;;;;;;0.30;0.30;;;;;;;22.96;56.10;99195.34;6139723;23;20164;-83
2021/06/16 04:22:27;;;;;;;0.40;0.40;;;;;;;23.28;55.49;99200.41;6166284;23;20018;-86
2021/06/16 04:24:54;;;;;;;0.30;0.30;;;;;;;23.31;55.52;99199.91;6162181;23;20084;-86
2021/06/16 04:27:19;;;;;;;0.30;0.30;;;;;;;23.28;54.74;99203.16;6162645;23;20073;-85
2021/06/16 04:29:46;;;;;;;0.30;0.30;;;;;;;23.49;54.19;99198.91;6166870;23;20005;-85
2021/06/16 04:32:12;;;;;;;0.30;0.30;;;;;;;23.79;54.07;99196.72;6138745;23;20053;-83
2021/06/16 04:34:39;;;;;;;0.40;0.40;;;;;;;23.82;54.35;99196.22;6138405;23;20027;-87
2021/06/16 04:37:05;;;;;;;0.30;0.30;;;;;;;24.15;53.66;99200.09;6163113;23;20033;-83
2021/06/16 04:39:32;;;;;;;0.35;0.35;;;;;;;24.69;52.00;99194.91;6163121;23;20021;-84
2021/06/16 04:41:58;;;;;;;0.30;0.30;;;;;;;24.47;51.54;99196.78;6164402;23;20021;-83
2021/06/16 04:44:24;;;;;;;0.40;0.40;;;;;;;24.41;51.38;99208.84;6167367;23;20073;-84
2021/06/16 04:46:50;;;;;;;0.40;0.40;;;;;;;24.53;51.11;99201.28;6168069;23;20025;-83
2021/06/16 04:49:22;;;;;;;0.40;0.40;;;;;;;24.47;51.24;99213.38;6118518;23;20073;-84
2021/06/16 04:51:49;;;;;;;0.40;0.40;;;;;;;24.38;52.16;99212.06;6167014;23;20029;-83
2021/06/16 04:54:16;;;;;;;0.52;0.50;;;;;;;24.28;51.98;99210.00;6165548;23;20033;-83
2021/06/16 04:56:43;;;;;;;0.40;0.40;;;;;;;24.76;51.15;99212.13;6141473;23;20025;-83
2021/06/16 04:59:10;;;;;;;0.50;0.50;;;;;;;25.18;49.42;99222.69;6168603;23;20018;-83
2021/06/16 05:01:39;;;;;;;0.40;0.40;;;;;;;25.35;49.28;99224.56;6169070;23;20064;-84
2021/06/16 05:04:06;;;;;;;0.40;0.40;;;;;;;25.83;48.71;99231.22;6119054;23;20021;-83
2021/06/16 05:06:33;;;;;;;0.40;0.40;;;;;;;25.73;48.52;99232.72;6116095;23;20050;-86
2021/06/16 05:09:00;;;;;;;0.50;0.50;;;;;;;25.78;48.45;99239.41;6143440;23;20037;-84
2021/06/16 05:11:27;;;;;;;0.40;0.40;;;;;;;25.85;48.23;99234.53;6119503;23;20006;-85
2021/06/16 05:13:55;;;;;;;0.40;0.40;;;;;;;26.15;48.27;99236.78;6118364;23;20113;-86
2021/06/16 05:16:22;;;;;;;0.50;0.50;;;;;;;26.31;47.34;99243.28;6097356;23;20032;-84
2021/06/16 05:18:49;;;;;;;0.50;0.50;;;;;;;26.55;46.59;99238.25;6126918;23;20098;-87
2021/06/16 05:21:15;;;;;;;0.50;0.50;;;;;;;27.12;45.23;99238.34;6146842;23;20025;-85
2021/06/16 05:23:49;;;;;;;0.50;0.50;;;;;;;27.12;46.34;99241.09;6146094;23;20046;31
2021/06/16 05:26:23;;;;;;;0.50;0.50;;;;;;;26.92;45.73;99250.13;6110645;23;20101;-85
2021/06/16 05:28:50;;;;;;;0.60;0.60;;;;;;;27.55;44.23;99241.84;6116043;23;20010;-82
2021/06/16 05:31:17;;;;;;;0.52;0.52;;;;;;;27.80;43.48;99243.06;6110549;23;20026;-86
2021/06/16 05:33:45;;;;;;;0.50;0.50;;;;;;;27.51;43.70;99239.91;6084107;23;20093;-83
2021/06/16 05:36:12;;;;;;;0.50;0.50;;;;;;;27.14;45.83;99252.78;6161630;22;20009;-89
2021/06/16 05:38:39;;;;;;;0.60;0.60;;;;;;;27.47;45.19;99256.28;6143651;23;20036;-87
2021/06/16 05:41:06;;;;;;;0.60;0.60;;;;;;;28.04;43.90;99260.88;6143665;23;20041;-85
2021/06/16 05:43:34;;;;;;;0.60;0.60;;;;;;;27.96;43.95;99258.66;6146926;23;20020;-85
2021/06/16 05:46:01;;;;;;;0.70;0.70;;;;;;;28.38;43.32;99267.91;6144405;23;20089;-83
2021/06/16 05:48:28;;;;;;;0.63;0.63;;;;;;;28.10;43.38;99270.91;6172363;23;20025;-84
2021/06/16 05:50:55;;;;;;;0.60;0.60;;;;;;;28.51;41.87;99273.75;6173959;23;20017;-82
2021/06/16 05:53:22;;;;;;;0.63;0.63;;;;;;;29.07;41.35;99272.88;6117653;23;20363;-86
2021/06/16 05:55:49;;;;;;;0.60;0.60;;;;;;;29.20;41.31;99282.56;6120147;23;20017;-83
2021/06/16 05:58:16;;;;;;;0.60;0.60;;;;;;;29.28;40.37;99277.25;6095483;23;20128;-86
2021/06/16 06:00:42;;;;;;;0.63;0.63;;;;;;;29.78;39.70;99271.78;6144741;23;20048;-84
2021/06/16 06:03:09;;;;;;;0.60;0.60;;;;;;;29.89;39.66;99267.81;6168651;23;20135;-85
2021/06/16 06:05:35;;;;;;;0.60;0.60;;;;;;;29.81;40.27;99265.63;6145306;23;20017;-85
2021/06/16 06:08:05;;;;;;;0.70;0.70;;;;;;;29.96;39.66;99273.91;6165446;23;20495;-83
2021/06/16 06:10:31;;;;;;;0.70;0.70;;;;;;;30.15;39.82;99267.66;6118484;23;20072;-84
2021/06/16 06:12:57;;;;;;;0.70;0.70;;;;;;;30.68;38.82;99278.97;6167887;23;20100;-83
2021/06/16 06:15:33;;;;;;;0.70;0.70;;;;;;;30.22;39.60;99276.56;6140328;23;20081;-85
2021/06/16 06:18:00;;;;;;;0.70;0.70;;;;;;;30.37;39.21;99284.81;6122377;23;20009;-83
2021/06/16 06:20:27;;;;;;;0.70;0.70;;;;;;;30.60;37.96;99279.59;6167021;23;20029;-84
2021/06/16 06:22:56;;;;;;;0.80;0.80;;;;;;;31.04;38.17;99287.84;6173584;23;20016;-83
2021/06/16 06:25:23;;;;;;;0.70;0.70;;;;;;;31.18;37.64;99299.16;6173133;23;20021;-82
2021/06/16 06:27:49;;;;;;;0.70;0.70;;;;;;;30.86;37.30;99303.41;6170670;23;20093;-83
2021/06/16 06:30:15;;;;;;;0.70;0.70;;;;;;;30.78;37.28;99304.03;6167033;23;20025;-85
2021/06/16 06:32:42;;;;;;;0.70;0.70;;;;;;;30.82;37.71;99302.31;6097354;23;20040;-85
2021/06/16 06:35:10;;;;;;;0.80;0.80;;;;;;;30.61;37.86;99309.19;6144679;23;20069;-87
2021/06/16 06:37:36;;;;;;;0.80;0.80;;;;;;;30.82;37.40;99307.88;6092325;23;20108;-84
2021/06/16 06:40:03;;;;;;;0.80;0.80;;;;;;;31.86;36.72;99315.72;6163221;23;20028;-86
2021/06/16 06:42:31;;;;;;;0.80;0.80;;;;;;;31.52;35.97;99315.00;6167984;23;20421;-86
2021/06/16 06:44:58;;;;;;;0.80;0.80;;;;;;;31.76;35.79;99310.22;6119276;23;20014;-84
2021/06/16 06:47:26;;;;;;;0.90;0.90;;;;;;;31.73;35.34;99304.41;6169194;23;20056;-85
2021/06/16 06:49:53;;;;;;;0.90;0.90;;;;;;;32.23;35.25;99311.28;6144094;23;20045;-83
2021/06/16 06:52:20;;;;;;;1.00;1.00;;;;;;;33.04;34.37;99311.94;6119825;23;20043;-85
2021/06/16 06:54:48;;;;;;;1.00;1.00;;;;;;;33.04;33.51;99316.72;6171710;23;20452;-85
2021/06/16 06:57:15;;;;;;;0.95;0.95;;;;;;;33.75;33.28;99325.72;6169023;23;20025;-83
2021/06/16 06:59:42;;;;;;;0.30;0.30;;;;;;;33.92;33.38;99330.69;6143262;23;20052;-85
2021/06/16 07:02:08;;;;;;;0.30;0.13;;;;;;;32.85;34.36;99323.19;6171730;23;20037;-83
2021/06/16 07:04:34;;;;;;;0.90;0.90;;;;;;;31.95;35.63;99335.44;6118092;23;20025;-84
2021/06/16 07:07:01;;;;;;;0.47;0.47;;;;;;;31.51;36.13;99327.31;6171719;23;20038;-84
2021/06/16 07:09:27;;;;;;;0.38;0.38;;;;;;;31.92;34.72;99331.31;6164186;23;20028;-84
2021/06/16 07:11:54;;;;;;;1.20;1.20;;;;;;;31.50;36.01;99336.84;6141583;23;20022;-83
2021/06/16 07:14:20;;;;;;;1.10;1.10;;;;;;;32.64;34.83;99333.06;6165395;23;20021;-84
2021/06/16 07:16:47;;;;;;;1.20;1.20;;;;;;;33.73;32.73;99340.06;6164614;23;20409;-85
2021/06/16 07:19:13;;;;;;;0.20;0.20;;;;;;;33.62;33.15;99334.97;6140227;23;20052;-82
2021/06/16 07:21:40;;;;;;;0.10;0.10;;;;;;;31.26;36.77;99334.81;6113791;23;20483;-85
2021/06/16 07:24:06;;;;;;;0.80;0.80;;;;;;;31.04;37.06;99342.88;6135855;23;20025;-85
2021/06/16 07:26:33;;;;;;;0.20;0.20;;;;;;;31.29;36.27;99344.56;6163674;23;20013;-83
2021/06/16 07:29:00;;;;;;;1.38;1.38;;;;;;;32.30;34.16;99338.88;6141224;23;20020;-87
2021/06/16 07:31:27;;;;;;;1.27;1.27;;;;;;;33.67;32.79;99346.06;6165167;23;20025;-84
2021/06/16 07:33:53;;;;;;;1.30;1.30;;;;;;;34.39;31.42;99345.38;6116490;23;20069;-84
2021/06/16 07:36:20;;;;;;;1.20;1.20;;;;;;;35.18;31.70;99348.50;6141001;23;20025;-86
2021/06/16 07:38:47;;;;;;;1.60;1.50;;;;;;;34.89;30.23;99362.16;6167567;23;20032;-83
2021/06/16 07:41:13;;;;;;;1.40;1.40;;;;;;;35.07;30.65;99361.16;6158670;23;20010;-83
2021/06/16 07:43:40;;;;;;;0.90;0.90;;;;;;;35.12;30.77;99352.59;6138771;23;20017;-84
2021/06/16 07:46:19;;;;;;;1.02;1.02;;;;;;;35.58;29.36;99359.81;6162046;23;20030;-86
2021/06/16 07:48:45;;;;;;;0.40;0.40;;;;;;;34.89;30.79;99359.34;6138381;23;20109;-83
2021/06/16 07:51:12;;;;;;;0.20;0.20;;;;;;;33.91;31.89;99359.88;6135280;23;20263;-85
2021/06/16 07:53:40;;;;;;;0.20;0.20;;;;;;;32.79;33.35;99360.81;6112434;23;20014;-83
2021/06/16 07:56:06;;;;;;;0.90;0.90;;;;;;;32.53;34.14;99373.53;6158650;23;20452;-82
2021/06/16 07:58:32;;;;;;;0.80;0.80;;;;;;;31.86;34.02;99357.66;6159938;23;20203;-85
2021/06/16 08:00:59;;;;;;;1.23;1.23;;;;;;;33.09;32.95;99369.84;6161026;23;20018;-84
2021/06/16 08:03:24;;;;;;;1.20;1.20;;;;;;;33.19;32.23;99364.06;6137414;23;20033;-82
2021/06/16 08:05:51;;;;;;;1.17;1.17;;;;;;;32.89;32.35;99371.84;6160415;23;20019;-83
2021/06/16 08:08:17;;;;;;;1.20;1.20;;;;;;;34.41;31.32;99371.13;6139146;23;20025;-83
2021/06/16 08:10:44;;;;;;;1.20;1.20;;;;;;;35.14;29.04;99372.78;6141789;23;20158;-87
2021/06/16 08:13:12;;;;;;;0.93;0.93;;;;;;;35.93;27.80;99382.41;6141079;23;20018;-84
2021/06/16 08:15:39;;;;;;;1.00;1.00;;;;;;;35.59;28.01;99383.97;6147283;23;20037;-85
2021/06/16 08:18:06;;;;;;;0.80;0.80;;;;;;;35.73;27.80;99384.69;6146702;23;20077;-86
2021/06/16 08:20:36;;;;;;;0.70;0.70;;;;;;;36.01;27.31;99392.91;6149371;23;20017;-85
2021/06/16 08:23:06;;;;;;;0.70;0.70;;;;;;;34.96;28.03;99376.59;6123309;23;20021;-84
2021/06/16 08:25:34;;;;;;;1.00;1.00;;;;;;;34.99;28.24;99390.84;6066928;23;20022;-83
2021/06/16 08:28:01;;;;;;;0.88;0.88;;;;;;;35.17;27.51;99393.78;6113348;23;20044;-83
2021/06/16 08:30:28;;;;;;;1.10;1.10;;;;;;;35.57;28.41;99393.84;6142906;23;20062;-84
2021/06/16 08:32:55;;;;;;;1.27;1.27;;;;;;;35.60;27.45;99391.22;6118598;23;20022;-83
2021/06/16 08:35:21;;;;;;;1.30;1.30;;;;;;;36.12;26.83;99402.69;6181021;22;20024;-86
2021/06/16 08:37:49;;;;;;;1.38;1.38;;;;;;;37.26;26.32;99400.78;6164192;23;20009;-84
2021/06/16 08:40:17;;;;;;;1.30;1.30;;;;;;;37.16;26.02;99397.16;6174289;23;20081;-86
2021/06/16 08:42:48;;;;;;;1.50;1.50;;;;;;;36.63;26.20;99403.13;6150950;22;313212;-85
2021/06/16 08:45:16;;;;;;;0.40;0.40;;;;;;;37.01;27.04;99397.69;6151051;23;20017;-83
2021/06/16 08:47:48;;;;;;;0.10;0.10;;;;;;;35.34;27.81;99409.94;6126641;23;20075;-84
2021/06/16 08:50:14;;;;;;;0.10;0.10;;;;;;;33.90;30.05;99405.88;6140921;23;20021;-86
2021/06/16 08:52:41;;;;;;;0.10;0.10;;;;;;;33.19;30.88;99408.88;6144197;23;20289;-83
2021/06/16 08:55:10;;;;;;;0.10;0.10;;;;;;;32.14;31.87;99405.41;6149555;23;20033;-83
2021/06/16 08:57:37;;;;;;;0.10;0.10;;;;;;;31.35;32.79;99411.31;6126013;23;20018;-83
2021/06/16 09:00:04;;;;;;;0.30;0.30;;;;;;;31.57;33.03;99416.41;6173420;23;20017;-82
2021/06/16 09:02:31;;;;;;;0.30;0.30;;;;;;;31.53;32.51;99415.31;6151828;23;20017;-85
2021/06/16 09:05:04;;;;;;;0.30;0.30;;;;;;;31.66;33.05;99427.75;6166040;22;20023;-85
2021/06/16 09:07:33;;;;;;;0.40;0.40;;;;;;;31.72;31.84;99432.16;6153297;23;20009;-86
2021/06/16 09:10:17;;;;;;;1.40;1.40;;;;;;;32.63;31.12;99423.78;6119507;22;20027;31
2021/06/16 09:12:59;;;;;;;1.48;1.48;;;;;;;34.24;29.90;99440.00;6181988;22;20139;-86
2021/06/16 09:15:28;;;;;;;1.30;1.30;;;;;;;34.50;27.96;99442.28;6200683;22;20036;-85
2021/06/16 09:18:14;;;;;;;1.30;1.30;;;;;;;35.74;26.71;99438.94;6129302;23;20005;-86
2021/06/16 09:20:46;;;;;;;1.30;1.30;;;;;;;35.94;26.67;99443.16;6101454;22;20043;-84
2021/06/16 09:23:25;;;;;;;1.10;1.10;;;;;;;36.51;26.33;99442.41;6128814;23;20035;-87
2021/06/16 09:26:06;;;;;;;0.20;0.20;;;;;;;35.39;27.10;99446.31;6116079;23;20025;-85
2021/06/16 09:28:39;;;;;;;0.30;0.30;;;;;;;33.82;28.38;99444.78;6119796;23;20053;-86
2021/06/16 09:31:10;;;;;;;1.20;1.20;;;;;;;35.10;28.08;99450.44;6133242;23;20226;-86
2021/06/16 09:33:38;;;;;;;1.30;1.30;;;;;;;35.85;27.23;99453.56;6150048;23;20028;-87
2021/06/16 09:36:16;;;;;;;0.10;0.10;;;;;;;34.72;27.63;99459.19;6126630;23;20080;-85
2021/06/16 09:38:47;;;;;;;0.10;0.10;;;;;;;33.31;30.43;99442.88;6176332;23;20041;-84
2021/06/16 09:41:19;;;;;;;0.20;0.10;;;;;;;32.40;30.55;99447.88;6153199;23;20016;-87
2021/06/16 09:43:47;;;;;;;1.25;1.25;;;;;;;33.85;28.98;99465.75;6123721;23;20002;-87
2021/06/16 09:46:15;;;;;;;1.20;1.20;;;;;;;34.55;28.13;99461.81;6147475;23;20044;-86
2021/06/16 09:48:46;;;;;;;1.30;1.30;;;;;;;35.48;26.83;99464.09;6150400;23;20012;-86
2021/06/16 09:51:20;;;;;;;1.10;1.10;;;;;;;36.26;25.45;99463.69;6121595;23;20021;-88
2021/06/16 09:54:14;;;;;;;1.20;1.20;;;;;;;36.34;24.89;99462.88;6123338;22;20032;-86
2021/06/16 09:56:51;;;;;;;0.30;0.30;;;;;;;35.42;26.56;99460.56;6131071;23;20021;-87
2021/06/16 09:59:46;;;;;;;1.35;1.23;;;;;;;35.92;26.14;99465.19;6153716;23;20062;-88
2021/06/16 10:02:23;;;;;;;1.10;1.10;;;;;;;36.08;25.63;99474.88;6152035;23;20032;-87
2021/06/16 10:04:57;;;;;;;1.10;1.10;;;;;;;36.37;24.93;99470.66;6187236;22;20020;-86
2021/06/16 10:07:33;;;;;;;1.00;1.00;;;;;;;36.88;23.83;99480.38;6162458;23;20033;-87
2021/06/16 10:10:01;;;;;;;1.00;1.00;;;;;;;35.44;26.08;99471.53;6172944;23;20032;-86
2021/06/16 10:12:34;;;;;;;0.10;0.10;;;;;;;35.10;26.66;99469.28;6171412;23;20013;-87
2021/06/16 10:15:18;;;;;;;0.10;0.10;;;;;;;33.83;28.09;99474.47;6108003;23;20073;-85
2021/06/16 10:17:57;;;;;;;0.10;0.10;;;;;;;32.45;29.12;99477.78;6143140;23;20036;-83
2021/06/16 10:20:26;;;;;;;1.00;1.00;;;;;;;31.87;30.22;99473.97;6119341;23;20121;-86
2021/06/16 10:22:53;;;;;;;1.20;1.20;;;;;;;33.87;26.83;99480.31;6144270;23;20425;-89
2021/06/16 10:25:30;;;;;;;1.20;1.20;;;;;;;34.86;26.18;99484.44;6170141;23;20037;-90
2021/06/16 10:31:02;;;;;;;1.17;1.17;;;;;;;35.86;25.70;99484.19;6181142;22;20017;31
2021/06/16 10:33:32;;;;;;;0.10;0.10;;;;;;;34.17;27.13;99484.50;6145077;23;20030;-82
2021/06/16 10:36:15;;;;;;;1.05;1.05;;;;;;;33.89;26.83;99488.38;6116505;23;20026;-86
2021/06/16 10:39:06;;;;;;;0.43;0.43;;;;;;;33.90;26.79;99484.44;6140697;23;20052;-83
2021/06/16 10:41:46;;;;;;;0.10;0.10;;;;;;;32.38;27.24;99490.13;6136075;23;20010;-86
2021/06/16 10:44:42;;;;;;;0.10;0.10;;;;;;;31.14;31.49;99488.00;6136189;23;20014;-85
2021/06/16 10:47:09;;;;;;;1.20;1.20;;;;;;;32.12;28.29;99486.81;6100394;23;20133;-85
2021/06/16 10:49:46;;;;;;;1.20;1.20;;;;;;;33.58;25.72;99492.59;6150924;23;20076;-85
2021/06/16 10:52:15;;;;;;;1.00;1.00;;;;;;;34.77;24.38;99500.34;6159801;23;20002;-83
2021/06/16 10:55:02;;;;;;;0.35;0.20;;;;;;;34.10;26.92;99495.31;6097730;23;20036;-85
2021/06/16 10:57:30;;;;;;;1.20;1.20;;;;;;;34.58;25.16;99505.28;6117090;23;20428;-84
2021/06/16 10:59:56;;;;;;;0.10;0.10;;;;;;;32.78;27.92;99499.16;6161978;23;20045;-84
2021/06/16 11:02:25;;;;;;;1.13;0.70;;;;;;;32.93;26.16;99500.88;6139658;23;20053;-83
2021/06/16 11:05:22;;;;;;;0.10;0.10;;;;;;;31.97;29.42;99495.41;6146136;23;20026;-85
2021/06/16 11:07:50;;;;;;;1.55;1.55;;;;;;;32.87;27.86;99507.69;6152167;23;20006;-83
2021/06/16 11:10:16;;;;;;;0.10;0.10;;;;;;;32.07;27.53;99494.44;6151063;23;20211;-83
2021/06/16 11:12:44;;;;;;;0.10;0.10;;;;;;;31.51;29.24;99492.19;6142199;23;20021;-82
2021/06/16 11:15:12;;;;;;;1.20;1.20;;;;;;;32.59;26.73;99501.09;6119831;23;20018;-84
2021/06/16 11:17:43;;;;;;;1.20;1.20;;;;;;;32.93;27.34;99498.09;6114767;23;20021;-84
2021/06/16 11:20:19;;;;;;;1.20;1.20;;;;;;;33.48;25.45;99511.56;6119774;23;20021;-84
2021/06/16 11:23:07;;;;;;;1.10;1.10;;;;;;;34.24;23.54;99498.94;6125705;23;20041;-84
2021/06/16 11:25:41;;;;;;;1.10;1.10;;;;;;;34.11;24.02;99499.75;6170647;23;20028;-83
2021/06/16 11:28:18;;;;;;;1.00;1.00;;;;;;;34.33;24.82;99499.84;6165224;23;20021;-84
2021/06/16 11:30:47;;;;;;;1.10;1.10;;;;;;;34.63;24.67;99505.16;6117362;23;20464;-84
2021/06/16 11:33:22;;;;;;;1.00;1.00;;;;;;;34.17;23.57;99501.34;6141935;23;20071;-85
2021/06/16 11:35:49;;;;;;;1.00;1.00;;;;;;;35.18;22.11;99500.28;6167341;23;20084;-85
2021/06/16 11:38:18;;;;;;;0.90;0.90;;;;;;;35.17;22.57;99507.03;6142718;23;20025;-84
2021/06/16 11:41:21;;;;;;;1.05;1.05;;;;;;;34.90;22.02;99501.47;6166439;23;20234;-85
2021/06/16 11:43:51;;;;;;;1.00;1.00;;;;;;;35.37;22.41;99499.25;6167236;23;20021;-85
2021/06/16 11:46:30;;;;;;;1.00;1.00;;;;;;;34.88;22.92;99503.75;6167587;23;20017;-85